createdAt,value
2017-06-12T00:01:39.158Z,55.80
2017-06-12T00:04:06.613Z,55.20
2017-06-12T00:06:33.866Z,55.10
2017-06-12T00:09:01.324Z,54.90
2017-06-12T00:11:28.576Z,54.60
2017-06-12T00:13:55.193Z,54.80
2017-06-12T00:16:22.474Z,55.00
2017-06-12T00:18:49.088Z,55.00
2017-06-12T00:21:16.750Z,55.00
2017-06-12T00:23:43.404Z,55.20
2017-06-12T00:26:10.042Z,55.00
2017-06-12T00:28:37.294Z,55.00
2017-06-12T00:31:05.237Z,55.00
2017-06-12T00:33:31.768Z,55.10
2017-06-12T00:35:58.540Z,55.20
2017-06-12T00:38:40.105Z,55.30
2017-06-12T00:41:06.765Z,55.30
2017-06-12T00:43:33.402Z,55.00
2017-06-12T00:46:00.017Z,55.10
2017-06-12T00:48:26.657Z,55.00
2017-06-12T00:50:53.319Z,55.10
2017-06-12T00:53:19.957Z,55.10
2017-06-12T00:55:47.618Z,55.00
2017-06-12T00:58:14.254Z,55.10
2017-06-12T01:00:40.893Z,55.20
2017-06-12T01:03:08.870Z,55.10
2017-06-12T01:05:35.391Z,55.00
2017-06-12T01:08:02.812Z,55.10
2017-06-12T01:10:29.574Z,55.20
2017-06-12T01:12:56.209Z,55.10
2017-06-12T01:15:22.849Z,55.00
2017-06-12T01:17:49.484Z,55.00
2017-06-12T01:20:16.145Z,54.80
2017-06-12T01:22:42.784Z,54.50
2017-06-12T01:25:10.446Z,54.70
2017-06-12T01:27:37.086Z,54.90
2017-06-12T01:30:03.722Z,55.00
2017-06-12T01:32:31.182Z,55.00
2017-06-12T01:34:57.818Z,55.10
2017-06-12T01:37:24.428Z,54.90
2017-06-12T01:39:51.884Z,54.90
2017-06-12T01:42:18.550Z,54.70
2017-06-12T01:44:45.188Z,54.80
2017-06-12T01:47:11.826Z,54.90
2017-06-12T01:49:38.464Z,54.80
2017-06-12T01:52:05.716Z,54.90
2017-06-12T01:54:32.353Z,55.00
2017-06-12T01:56:58.978Z,55.10
2017-06-12T01:59:25.608Z,55.30
2017-06-12T02:01:52.267Z,55.30
2017-06-12T02:04:18.864Z,55.50
2017-06-12T02:06:46.012Z,55.60
2017-06-12T02:09:12.773Z,55.70
2017-06-12T02:11:39.433Z,55.80
2017-06-12T02:14:06.072Z,55.80
2017-06-12T02:16:32.708Z,55.80
2017-06-12T02:18:59.321Z,55.80
2017-06-12T02:21:25.986Z,56.00
2017-06-12T02:23:52.623Z,55.80
2017-06-12T02:26:20.080Z,56.10
2017-06-12T02:28:46.718Z,56.00
2017-06-12T02:31:13.332Z,56.00
2017-06-12T02:33:39.993Z,56.10
2017-06-12T02:36:06.837Z,56.40
2017-06-12T02:38:33.679Z,56.50
2017-06-12T02:41:15.163Z,56.50
2017-06-12T02:43:56.608Z,56.40
2017-06-12T02:46:38.832Z,56.70
2017-06-12T02:49:20.290Z,57.00
2017-06-12T02:52:01.709Z,57.00
2017-06-12T02:54:43.248Z,57.20
2017-06-12T02:57:24.957Z,57.30
2017-06-12T03:00:06.502Z,57.50
2017-06-12T03:02:34.151Z,57.70
2017-06-12T03:05:15.593Z,57.50
2017-06-12T03:07:57.148Z,57.60
2017-06-12T03:10:49.956Z,58.00
2017-06-12T03:13:16.616Z,57.80
2017-06-12T03:15:58.281Z,58.10
2017-06-12T03:18:40.055Z,58.20
2017-06-12T03:21:06.818Z,58.60
2017-06-12T03:23:34.095Z,59.20
2017-06-12T03:26:00.932Z,59.50
2017-06-12T03:28:27.550Z,60.10
2017-06-12T03:30:56.257Z,60.40
2017-06-12T03:33:22.895Z,60.70
2017-06-12T03:35:49.505Z,60.60
2017-06-12T03:38:16.150Z,60.60
2017-06-12T03:40:43.423Z,60.90
2017-06-12T03:43:10.036Z,60.80
2017-06-12T03:45:37.722Z,61.50
2017-06-12T03:48:04.331Z,61.80
2017-06-12T03:50:30.998Z,61.60
2017-06-12T03:52:58.659Z,61.90
2017-06-12T03:55:25.297Z,62.50
2017-06-12T03:57:51.936Z,62.60
2017-06-12T04:00:18.556Z,62.70
2017-06-12T04:02:45.194Z,62.70
2017-06-12T04:05:11.849Z,62.50
2017-06-12T04:07:38.461Z,62.70
2017-06-12T04:10:05.739Z,63.10
2017-06-12T04:12:32.377Z,63.00
2017-06-12T04:15:00.014Z,62.80
2017-06-12T04:17:26.678Z,63.10
2017-06-12T04:19:54.472Z,62.80
2017-06-12T04:22:21.783Z,63.10
2017-06-12T04:24:48.434Z,63.20
2017-06-12T04:27:15.987Z,63.70
2017-06-12T04:29:42.733Z,63.10
2017-06-12T04:32:09.975Z,63.20
2017-06-12T04:34:36.624Z,63.00
2017-06-12T04:37:05.487Z,63.40
2017-06-12T04:39:32.124Z,63.50
2017-06-12T04:41:58.790Z,63.50
2017-06-12T04:44:26.247Z,63.60
2017-06-12T04:46:52.885Z,63.60
2017-06-12T04:49:19.523Z,63.60
2017-06-12T04:51:46.162Z,63.40
2017-06-12T04:54:12.773Z,62.70
2017-06-12T04:56:39.412Z,62.20
2017-06-12T04:59:06.073Z,62.00
2017-06-12T05:01:32.712Z,61.40
2017-06-12T05:03:59.374Z,60.30
2017-06-12T05:06:26.785Z,59.70
2017-06-12T05:08:53.447Z,59.70
2017-06-12T05:11:20.087Z,60.00
2017-06-12T05:13:46.700Z,59.40
2017-06-12T05:16:13.234Z,59.80
2017-06-12T05:18:39.973Z,59.20
2017-06-12T05:21:06.635Z,58.70
2017-06-12T05:23:33.249Z,57.80
2017-06-12T05:25:59.911Z,57.80
2017-06-12T05:28:26.550Z,57.90
2017-06-12T05:30:53.187Z,58.10
2017-06-12T05:33:20.553Z,57.30
2017-06-12T05:35:47.076Z,57.30
2017-06-12T05:38:13.714Z,58.00
2017-06-12T05:40:40.352Z,58.20
2017-06-12T05:43:06.991Z,58.90
2017-06-12T05:45:33.628Z,57.90
2017-06-12T05:48:00.266Z,58.40
2017-06-12T05:50:26.906Z,58.90
2017-06-12T05:52:53.521Z,59.00
2017-06-12T05:55:20.180Z,59.30
2017-06-12T05:58:01.744Z,59.20
2017-06-12T06:00:28.406Z,59.70
2017-06-12T06:02:55.016Z,60.70
2017-06-12T06:05:21.682Z,60.90
2017-06-12T06:07:48.320Z,60.50
2017-06-12T06:10:14.957Z,60.50
2017-06-12T06:12:41.596Z,60.50
2017-06-12T06:15:08.233Z,60.90
2017-06-12T06:17:34.872Z,61.20
2017-06-12T06:20:01.510Z,61.60
2017-06-12T06:22:28.128Z,61.50
2017-06-12T06:24:55.400Z,61.40
2017-06-12T06:27:22.016Z,61.70
2017-06-12T06:29:49.495Z,61.80
2017-06-12T06:32:16.132Z,61.70
2017-06-12T06:34:42.748Z,62.60
2017-06-12T06:37:09.410Z,61.50
2017-06-12T06:39:36.046Z,61.60
2017-06-12T06:42:03.125Z,62.00
2017-06-12T06:44:29.710Z,62.10
2017-06-12T06:46:57.189Z,63.00
2017-06-12T06:49:23.743Z,63.10
2017-06-12T06:51:50.874Z,60.40
2017-06-12T06:54:17.490Z,60.70
2017-06-12T06:56:44.152Z,59.60
2017-06-12T06:59:10.789Z,53.80
2017-06-12T07:01:37.285Z,53.40
2017-06-12T07:04:04.996Z,53.50
2017-06-12T07:06:31.724Z,54.40
2017-06-12T07:08:58.280Z,53.80
2017-06-12T07:11:24.986Z,54.00
2017-06-12T07:13:51.480Z,54.30
2017-06-12T07:16:19.132Z,55.40
2017-06-12T07:18:45.734Z,55.00
2017-06-12T07:21:12.348Z,55.30
2017-06-12T07:23:39.030Z,55.00
2017-06-12T07:26:05.631Z,55.60
2017-06-12T07:28:32.115Z,56.20
2017-06-12T07:30:58.721Z,56.80
2017-06-12T07:33:25.357Z,56.20
2017-06-12T07:35:51.968Z,55.20
2017-06-12T07:38:18.636Z,55.20
2017-06-12T07:40:45.271Z,55.10
2017-06-12T07:43:11.908Z,54.50
2017-06-12T07:45:38.525Z,54.20
2017-06-12T07:48:05.168Z,54.20
2017-06-12T07:50:31.822Z,54.10
2017-06-12T07:52:58.432Z,54.10
2017-06-12T07:55:25.098Z,52.40
2017-06-12T07:57:51.714Z,52.90
2017-06-12T08:00:18.374Z,52.10
2017-06-12T08:02:44.984Z,51.10
2017-06-12T08:05:11.557Z,49.50
2017-06-12T08:07:38.264Z,48.50
2017-06-12T08:10:04.924Z,48.30
2017-06-12T08:12:31.563Z,47.40
2017-06-12T08:14:58.202Z,47.00
2017-06-12T08:17:25.337Z,45.30
2017-06-12T08:19:52.069Z,39.60
2017-06-12T08:22:18.730Z,39.10
2017-06-12T08:24:45.900Z,39.30
2017-06-12T08:27:12.592Z,38.90
2017-06-12T08:29:39.257Z,36.40
2017-06-12T08:32:05.868Z,34.80
2017-06-12T08:34:32.536Z,34.60
2017-06-12T08:36:59.739Z,33.20
2017-06-12T08:39:27.039Z,33.00
2017-06-12T08:41:53.653Z,32.40
2017-06-12T08:44:20.957Z,31.40
2017-06-12T08:46:47.566Z,32.00
2017-06-12T08:49:14.180Z,30.70
2017-06-12T08:51:40.843Z,29.00
2017-06-12T08:54:07.480Z,30.20
2017-06-12T08:56:34.528Z,29.10
2017-06-12T08:59:01.166Z,29.10
2017-06-12T09:01:27.776Z,27.40
2017-06-12T09:03:54.440Z,28.30
2017-06-12T09:06:21.283Z,29.00
2017-06-12T09:08:47.921Z,27.90
2017-06-12T09:11:14.559Z,26.20
2017-06-12T09:13:41.198Z,26.90
2017-06-12T09:16:07.835Z,25.00
2017-06-12T09:18:34.473Z,23.90
2017-06-12T09:21:01.731Z,23.10
2017-06-12T09:23:28.342Z,20.60
2017-06-12T09:25:55.003Z,20.30
2017-06-12T09:28:21.623Z,20.50
2017-06-12T09:30:49.186Z,19.10
2017-06-12T09:33:16.256Z,19.40
2017-06-12T09:35:42.753Z,19.50
2017-06-12T09:38:10.045Z,19.30
2017-06-12T09:40:37.491Z,19.00
2017-06-12T09:43:04.128Z,20.60
2017-06-12T09:45:31.382Z,21.30
2017-06-12T09:47:57.998Z,21.30
2017-06-12T09:50:25.169Z,20.60
2017-06-12T09:52:51.807Z,20.30
2017-06-12T09:55:18.429Z,20.10
2017-06-12T09:57:45.084Z,19.50
2017-06-12T10:00:11.825Z,20.50
2017-06-12T10:02:38.462Z,22.20
2017-06-12T10:05:05.102Z,23.30
2017-06-12T10:07:31.736Z,22.50
2017-06-12T10:09:58.354Z,22.20
2017-06-12T10:12:25.012Z,24.30
2017-06-12T10:14:51.628Z,27.00
2017-06-12T10:17:19.108Z,30.20
2017-06-12T10:19:46.361Z,31.20
2017-06-12T10:22:13.434Z,31.00
2017-06-12T10:24:40.045Z,30.80
2017-06-12T10:27:06.683Z,28.00
2017-06-12T10:29:33.322Z,30.00
2017-06-12T10:32:00.063Z,30.30
2017-06-12T10:34:27.110Z,31.20
2017-06-12T10:36:53.747Z,31.20
2017-06-12T10:39:20.385Z,31.10
2017-06-12T10:41:47.002Z,31.10
2017-06-12T10:44:13.661Z,33.00
2017-06-12T10:46:40.914Z,32.40
2017-06-12T10:49:07.531Z,32.50
2017-06-12T10:51:34.614Z,32.30
2017-06-12T10:54:01.733Z,31.60
2017-06-12T10:56:28.284Z,31.90
2017-06-12T10:58:54.921Z,30.50
2017-06-12T11:01:21.560Z,31.50
2017-06-12T11:03:48.199Z,29.70
2017-06-12T11:06:14.813Z,31.40
2017-06-12T11:08:41.475Z,30.10
2017-06-12T11:11:08.564Z,30.00
2017-06-12T11:13:35.147Z,31.10
2017-06-12T11:16:01.798Z,31.70
2017-06-12T11:18:28.434Z,30.50
2017-06-12T11:20:55.073Z,30.10
2017-06-12T11:23:21.713Z,30.50
2017-06-12T11:25:48.537Z,29.30
2017-06-12T11:28:15.163Z,29.60
2017-06-12T11:30:46.540Z,28.60
2017-06-12T11:33:13.178Z,28.90
2017-06-12T11:35:39.788Z,29.10
2017-06-12T11:38:06.453Z,29.50
2017-06-12T11:40:33.092Z,30.60
2017-06-12T11:42:59.729Z,29.90
2017-06-12T11:45:26.369Z,29.50
2017-06-12T11:47:53.006Z,29.50
2017-06-12T11:50:19.621Z,30.40
2017-06-12T11:52:46.281Z,32.60
2017-06-12T11:55:13.409Z,31.10
2017-06-12T11:57:40.151Z,30.60
2017-06-12T12:00:06.809Z,30.80
2017-06-12T12:02:33.420Z,29.80
2017-06-12T12:05:00.161Z,31.00
2017-06-12T12:07:26.825Z,31.20
2017-06-12T12:09:53.440Z,30.80
2017-06-12T12:12:20.101Z,30.70
2017-06-12T12:14:47.207Z,30.90
2017-06-12T12:17:13.785Z,31.80
2017-06-12T12:19:40.425Z,29.60
2017-06-12T12:22:07.677Z,31.50
2017-06-12T12:24:34.315Z,31.30
2017-06-12T12:27:01.480Z,32.20
2017-06-12T12:29:28.207Z,30.70
2017-06-12T12:31:54.846Z,31.50
2017-06-12T12:34:22.110Z,31.50
2017-06-12T12:36:49.202Z,31.30
2017-06-12T12:39:15.780Z,31.30
2017-06-12T12:41:42.418Z,32.60
2017-06-12T12:44:09.028Z,33.00
2017-06-12T12:46:35.668Z,27.60
2017-06-12T12:49:02.947Z,28.50
2017-06-12T12:51:29.584Z,28.60
2017-06-12T12:53:56.200Z,29.20
2017-06-12T12:56:22.836Z,29.00
2017-06-12T12:58:49.332Z,28.30
2017-06-12T13:01:16.136Z,30.10
2017-06-12T13:03:42.773Z,30.00
2017-06-12T13:06:09.412Z,28.30
2017-06-12T13:08:36.653Z,28.10
2017-06-12T13:11:03.303Z,28.40
2017-06-12T13:13:29.940Z,29.40
2017-06-12T13:15:56.578Z,30.90
2017-06-12T13:18:23.194Z,30.30
2017-06-12T13:20:50.469Z,31.90
2017-06-12T13:23:17.105Z,30.00
2017-06-12T13:25:43.744Z,30.50
2017-06-12T13:28:10.565Z,30.60
2017-06-12T13:30:37.839Z,31.30
2017-06-12T13:33:04.449Z,31.90
2017-06-12T13:35:31.094Z,32.10
2017-06-12T13:37:57.754Z,30.20
2017-06-12T13:40:24.371Z,30.60
2017-06-12T13:42:52.239Z,32.40
2017-06-12T13:45:18.894Z,32.70
2017-06-12T13:47:46.079Z,33.60
2017-06-12T13:50:12.761Z,33.30
2017-06-12T13:52:39.423Z,32.30
2017-06-12T13:55:06.045Z,31.60
2017-06-12T13:57:33.127Z,32.20
2017-06-12T14:00:01.181Z,32.70
2017-06-12T14:02:27.800Z,32.70
2017-06-12T14:04:54.428Z,32.60
2017-06-12T14:07:21.093Z,33.40
2017-06-12T14:09:48.276Z,32.30
2017-06-12T14:12:15.599Z,33.00
2017-06-12T14:14:42.212Z,31.80
2017-06-12T14:17:08.874Z,33.40
2017-06-12T14:19:35.368Z,33.60
2017-06-12T14:22:02.691Z,33.40
2017-06-12T14:24:29.382Z,32.60
2017-06-12T14:26:57.129Z,32.40
2017-06-12T14:29:23.702Z,32.30
2017-06-12T14:31:50.341Z,33.50
2017-06-12T14:34:17.388Z,32.60
2017-06-12T14:36:44.001Z,32.60
2017-06-12T14:39:10.641Z,33.00
2017-06-12T14:41:37.302Z,33.00
2017-06-12T14:44:03.917Z,31.90
2017-06-12T14:46:30.578Z,31.80
2017-06-12T14:48:57.216Z,31.30
2017-06-12T14:51:23.854Z,31.30
2017-06-12T14:53:51.348Z,31.00
2017-06-12T14:56:18.788Z,31.10
2017-06-12T14:58:45.408Z,31.60
2017-06-12T15:01:12.043Z,32.30
2017-06-12T15:03:38.680Z,31.60
2017-06-12T15:06:05.319Z,31.00
2017-06-12T15:08:31.956Z,30.40
2017-06-12T15:10:59.119Z,31.10
2017-06-12T15:13:25.633Z,31.60
2017-06-12T15:15:52.280Z,32.80
2017-06-12T15:18:18.920Z,32.60
2017-06-12T15:20:45.557Z,32.00
2017-06-12T15:23:12.193Z,32.50
2017-06-12T15:25:38.940Z,32.60
2017-06-12T15:28:05.573Z,31.90
2017-06-12T15:30:32.211Z,32.30
2017-06-12T15:32:58.848Z,32.70
2017-06-12T15:35:25.489Z,31.00
2017-06-12T15:37:52.124Z,31.40
2017-06-12T15:40:18.762Z,31.30
2017-06-12T15:42:45.399Z,30.90
2017-06-12T15:45:12.038Z,32.20
2017-06-12T15:47:38.654Z,32.20
2017-06-12T15:50:08.032Z,32.70
2017-06-12T15:52:34.997Z,31.90
2017-06-12T15:55:01.662Z,31.90
2017-06-12T15:57:30.004Z,31.90
2017-06-12T15:59:56.782Z,32.70
2017-06-12T16:02:23.402Z,32.80
2017-06-12T16:04:50.032Z,33.20
2017-06-12T16:07:16.695Z,32.20
2017-06-12T16:09:43.248Z,32.50
2017-06-12T16:12:09.969Z,31.80
2017-06-12T16:14:36.608Z,32.40
2017-06-12T16:17:03.246Z,31.50
2017-06-12T16:19:29.856Z,32.50
2017-06-12T16:21:56.705Z,33.10
2017-06-12T16:24:24.017Z,32.80
2017-06-12T16:26:50.821Z,32.00
2017-06-12T16:29:17.433Z,32.00
2017-06-12T16:31:44.338Z,32.20
2017-06-12T16:34:11.540Z,32.30
2017-06-12T16:36:38.252Z,31.80
2017-06-12T16:39:04.908Z,32.50
2017-06-12T16:41:31.674Z,33.50
2017-06-12T16:43:58.311Z,34.00
2017-06-12T16:46:25.153Z,33.40
2017-06-12T16:48:51.792Z,34.00
2017-06-12T16:51:18.431Z,33.50
2017-06-12T16:53:45.869Z,32.80
2017-06-12T16:56:12.502Z,32.70
2017-06-12T16:58:39.161Z,33.10
2017-06-12T17:01:05.776Z,33.40
2017-06-12T17:03:32.662Z,33.10
2017-06-12T17:06:00.306Z,33.50
2017-06-12T17:08:26.943Z,34.00
2017-06-12T17:10:53.557Z,33.80
2017-06-12T17:13:20.219Z,34.00
2017-06-12T17:15:46.858Z,34.70
2017-06-12T17:18:13.365Z,34.80
2017-06-12T17:20:40.114Z,34.50
2017-06-12T17:23:07.698Z,34.20
2017-06-12T17:25:34.416Z,34.80
2017-06-12T17:28:01.172Z,35.30
2017-06-12T17:30:27.913Z,34.80
2017-06-12T17:32:55.176Z,35.50
2017-06-12T17:35:21.964Z,35.50
2017-06-12T17:37:48.624Z,35.60
2017-06-12T17:40:15.284Z,36.20
2017-06-12T17:42:41.922Z,36.50
2017-06-12T17:45:09.137Z,36.70
2017-06-12T17:47:35.790Z,37.20
2017-06-12T17:50:03.065Z,36.80
2017-06-12T17:52:29.637Z,37.00
2017-06-12T17:54:56.340Z,37.70
2017-06-12T17:57:23.096Z,38.00
2017-06-12T17:59:49.804Z,36.90
2017-06-12T18:02:16.458Z,37.00
2017-06-12T18:04:44.121Z,37.10
2017-06-12T18:07:11.202Z,37.20
2017-06-12T18:09:39.276Z,37.30
2017-06-12T18:12:05.866Z,37.20
2017-06-12T18:14:33.684Z,37.40
2017-06-12T18:17:00.457Z,37.70
2017-06-12T18:19:27.095Z,38.30
2017-06-12T18:21:53.761Z,38.60
2017-06-12T18:24:21.016Z,38.10
2017-06-12T18:26:47.624Z,38.70
2017-06-12T18:29:14.289Z,38.70
2017-06-12T18:31:40.907Z,38.90
2017-06-12T18:34:07.564Z,38.80
2017-06-12T18:36:34.136Z,39.00
2017-06-12T18:39:00.716Z,39.50
2017-06-12T18:41:27.452Z,40.00
2017-06-12T18:43:54.087Z,40.00
2017-06-12T18:46:20.753Z,40.70
2017-06-12T18:48:47.392Z,40.90
2017-06-12T18:51:14.031Z,41.00
2017-06-12T18:53:40.668Z,41.00
2017-06-12T18:56:07.307Z,41.10
2017-06-12T18:58:48.952Z,41.90
2017-06-12T19:01:15.635Z,41.70
2017-06-12T19:03:42.281Z,41.60
2017-06-12T19:06:08.911Z,42.00
2017-06-12T19:08:36.397Z,42.30
2017-06-12T19:11:03.210Z,42.50
2017-06-12T19:13:29.848Z,42.60
2017-06-12T19:15:56.486Z,42.90
2017-06-12T19:18:23.124Z,43.30
2017-06-12T19:20:49.763Z,43.20
2017-06-12T19:23:16.332Z,43.40
2017-06-12T19:25:43.653Z,43.50
2017-06-12T19:28:10.290Z,43.90
2017-06-12T19:30:37.542Z,44.10
2017-06-12T19:33:04.385Z,44.40
2017-06-12T19:35:31.002Z,44.60
2017-06-12T19:37:57.659Z,44.70
2017-06-12T19:40:24.298Z,44.60
2017-06-12T19:42:50.938Z,45.00
2017-06-12T19:45:17.555Z,45.20
2017-06-12T19:47:44.930Z,45.30
2017-06-12T19:50:11.673Z,45.20
2017-06-12T19:52:38.310Z,45.20
2017-06-12T19:55:04.946Z,45.30
2017-06-12T19:57:31.586Z,45.70
2017-06-12T19:59:58.620Z,45.60
2017-06-12T20:02:25.269Z,45.60
2017-06-12T20:04:51.881Z,45.70
2017-06-12T20:07:19.144Z,45.80
2017-06-12T20:09:45.798Z,46.10
2017-06-12T20:12:13.448Z,46.20
2017-06-12T20:14:40.097Z,46.30
2017-06-12T20:17:06.714Z,46.50
2017-06-12T20:19:33.373Z,46.80
2017-06-12T20:22:00.473Z,47.10
2017-06-12T20:24:27.242Z,46.90
2017-06-12T20:26:53.817Z,47.00
2017-06-12T20:29:20.518Z,47.10
2017-06-12T20:31:47.177Z,47.40
2017-06-12T20:34:13.815Z,47.60
2017-06-12T20:36:40.451Z,47.80
2017-06-12T20:39:07.774Z,47.70
2017-06-12T20:41:34.445Z,47.60
2017-06-12T20:44:01.084Z,47.80
2017-06-12T20:46:28.130Z,47.70
2017-06-12T20:48:55.383Z,48.00
2017-06-12T20:51:22.592Z,48.90
2017-06-12T20:53:49.253Z,48.50
2017-06-12T20:56:16.117Z,48.40
2017-06-12T20:58:42.754Z,48.60
2017-06-12T21:01:09.494Z,48.60
2017-06-12T21:03:36.109Z,49.00
2017-06-12T21:06:02.770Z,48.90
2017-06-12T21:08:29.408Z,49.10
2017-06-12T21:10:56.149Z,49.50
2017-06-12T21:13:22.786Z,49.40
2017-06-12T21:15:49.954Z,49.50
2017-06-12T21:18:16.676Z,49.70
2017-06-12T21:20:43.298Z,49.70
2017-06-12T21:23:10.772Z,49.80
2017-06-12T21:25:37.613Z,49.60
2017-06-12T21:28:04.252Z,50.00
2017-06-12T21:30:30.874Z,49.90
2017-06-12T21:32:57.528Z,50.20
2017-06-12T21:35:24.958Z,50.30
2017-06-12T21:37:51.623Z,50.20
2017-06-12T21:40:18.234Z,50.70
2017-06-12T21:42:44.898Z,50.60
2017-06-12T21:45:11.742Z,51.00
2017-06-12T21:47:39.100Z,51.40
2017-06-12T21:50:05.808Z,51.60
2017-06-12T21:52:32.474Z,51.70
2017-06-12T21:54:59.552Z,51.90
2017-06-12T21:57:26.365Z,52.10
2017-06-12T21:59:53.036Z,52.20
2017-06-12T22:02:19.742Z,52.50
2017-06-12T22:04:46.381Z,52.90
2017-06-12T22:07:13.196Z,53.10
2017-06-12T22:09:39.862Z,53.20
2017-06-12T22:12:07.116Z,53.40
2017-06-12T22:14:33.937Z,53.40
2017-06-12T22:17:01.123Z,53.70
2017-06-12T22:19:27.826Z,53.70
2017-06-12T22:21:54.484Z,53.70
2017-06-12T22:24:21.121Z,53.80
2017-06-12T22:26:47.761Z,54.10
2017-06-12T22:29:14.398Z,54.20
2017-06-12T22:31:41.435Z,53.90
2017-06-12T22:34:08.057Z,54.00
2017-06-12T22:36:34.721Z,53.90
2017-06-12T22:39:01.745Z,54.10
2017-06-12T22:41:28.380Z,54.40
2017-06-12T22:43:55.015Z,54.50
2017-06-12T22:46:22.268Z,54.70
2017-06-12T22:48:48.935Z,54.80
2017-06-12T22:51:15.571Z,54.50
2017-06-12T22:53:42.210Z,54.50
2017-06-12T22:56:08.820Z,54.70
2017-06-12T22:58:35.486Z,54.80
2017-06-12T23:01:02.124Z,55.00
2017-06-12T23:03:28.632Z,55.50
2017-06-12T23:06:10.723Z,56.10
2017-06-12T23:08:37.891Z,56.70
2017-06-12T23:11:05.136Z,57.10
2017-06-12T23:13:32.722Z,57.20
2017-06-12T23:15:59.336Z,57.40
2017-06-12T23:18:25.998Z,57.20
2017-06-12T23:20:52.619Z,57.20
2017-06-12T23:23:19.244Z,57.10
2017-06-12T23:25:52.158Z,57.20
2017-06-12T23:28:19.369Z,56.70
2017-06-12T23:30:46.020Z,57.10
2017-06-12T23:33:13.131Z,57.00
2017-06-12T23:35:39.939Z,56.80
2017-06-12T23:38:06.576Z,57.50
2017-06-12T23:40:34.238Z,56.80
2017-06-12T23:43:00.877Z,56.70
2017-06-12T23:48:03.573Z,57.00
2017-06-12T23:50:30.212Z,57.20
2017-06-12T23:52:57.053Z,57.60
2017-06-12T23:55:23.691Z,57.90
2017-06-12T23:57:50.260Z,58.00
